sensor_id;sensor_type;location;lat;lon;timestamp;pressure;altitude;pressure_sealevel;temperature;humidity
70200;BME280;57587;55.688;37.600;2023-04-24T00:01:23;99488.34;;;13.80;32.49
70200;BME280;57587;55.688;37.600;2023-04-24T00:03:50;99492.09;;;13.79;33.09
70200;BME280;57587;55.688;37.600;2023-04-24T00:06:18;99482.97;;;13.80;32.78
70200;BME280;57587;55.688;37.600;2023-04-24T00:08:45;99488.34;;;13.80;32.80
70200;BME280;57587;55.688;37.600;2023-04-24T00:11:12;99484.00;;;13.79;32.85
70200;BME280;57587;55.688;37.600;2023-04-24T00:13:39;99490.22;;;13.80;32.52
70200;BME280;57587;55.688;37.600;2023-04-24T00:16:07;99486.91;;;13.78;32.39
70200;BME280;57587;55.688;37.600;2023-04-24T00:18:34;99492.50;;;13.76;32.61
70200;BME280;57587;55.688;37.600;2023-04-24T00:21:01;99488.56;;;13.72;32.84
70200;BME280;57587;55.688;37.600;2023-04-24T00:23:28;99483.59;;;13.69;33.03
70200;BME280;57587;55.688;37.600;2023-04-24T00:25:55;99483.16;;;13.66;32.84
70200;BME280;57587;55.688;37.600;2023-04-24T00:28:22;99481.34;;;13.66;32.41
70200;BME280;57587;55.688;37.600;2023-04-24T00:30:49;99482.75;;;13.62;32.86
70200;BME280;57587;55.688;37.600;2023-04-24T00:33:16;99477.78;;;13.59;33.02
70200;BME280;57587;55.688;37.600;2023-04-24T00:35:43;99482.16;;;13.60;33.20
70200;BME280;57587;55.688;37.600;2023-04-24T00:38:11;99479.06;;;13.56;32.92
70200;BME280;57587;55.688;37.600;2023-04-24T00:40:38;99484.22;;;13.51;32.93
70200;BME280;57587;55.688;37.600;2023-04-24T00:43:05;99474.47;;;13.44;33.18
70200;BME280;57587;55.688;37.600;2023-04-24T00:45:36;99477.16;;;13.44;33.46
70200;BME280;57587;55.688;37.600;2023-04-24T00:48:03;99484.59;;;13.42;33.48
70200;BME280;57587;55.688;37.600;2023-04-24T00:50:31;99481.28;;;13.40;33.26
70200;BME280;57587;55.688;37.600;2023-04-24T00:52:58;99481.28;;;13.40;33.90
70200;BME280;57587;55.688;37.600;2023-04-24T00:55:25;99485.03;;;13.38;33.95
70200;BME280;57587;55.688;37.600;2023-04-24T00:57:53;99481.91;;;13.35;33.36
70200;BME280;57587;55.688;37.600;2023-04-24T01:00:20;99478.78;;;13.31;33.82
70200;BME280;57587;55.688;37.600;2023-04-24T01:02:47;99480.88;;;13.29;33.80
70200;BME280;57587;55.688;37.600;2023-04-24T01:05:15;99480.44;;;13.26;34.09
70200;BME280;57587;55.688;37.600;2023-04-24T01:07:45;99483.28;;;13.24;33.35
70200;BME280;57587;55.688;37.600;2023-04-24T01:10:14;99488.25;;;13.21;33.78
70200;BME280;57587;55.688;37.600;2023-04-24T01:12:41;99479.78;;;13.17;33.74
70200;BME280;57587;55.688;37.600;2023-04-24T01:15:11;99488.41;;;13.12;33.37
70200;BME280;57587;55.688;37.600;2023-04-24T01:17:39;99485.31;;;13.09;33.61
70200;BME280;57587;55.688;37.600;2023-04-24T01:20:06;99482.63;;;13.09;33.51
70200;BME280;57587;55.688;37.600;2023-04-24T01:22:34;99480.75;;;13.09;34.30
70200;BME280;57587;55.688;37.600;2023-04-24T01:25:03;99483.66;;;13.08;34.23
70200;BME280;57587;55.688;37.600;2023-04-24T01:27:31;99478.47;;;13.06;34.50
70200;BME280;57587;55.688;37.600;2023-04-24T01:29:59;99473.31;;;12.98;34.43
70200;BME280;57587;55.688;37.600;2023-04-24T01:32:30;99475.78;;;13.00;34.17
70200;BME280;57587;55.688;37.600;2023-04-24T01:34:58;99479.69;;;12.97;33.89
70200;BME280;57587;55.688;37.600;2023-04-24T01:37:25;99476.59;;;12.93;34.16
70200;BME280;57587;55.688;37.600;2023-04-24T01:39:53;99470.56;;;12.85;34.07
70200;BME280;57587;55.688;37.600;2023-04-24T01:42:21;99480.28;;;12.86;34.55
70200;BME280;57587;55.688;37.600;2023-04-24T01:44:48;99470.38;;;12.86;34.37
70200;BME280;57587;55.688;37.600;2023-04-24T01:47:16;99471.41;;;12.85;34.56
70200;BME280;57587;55.688;37.600;2023-04-24T01:49:43;99472.44;;;12.84;34.53
70200;BME280;57587;55.688;37.600;2023-04-24T01:52:12;99471.75;;;12.76;34.46
70200;BME280;57587;55.688;37.600;2023-04-24T01:54:39;99471.75;;;12.76;34.16
70200;BME280;57587;55.688;37.600;2023-04-24T01:57:07;99463.09;;;12.74;34.30
70200;BME280;57587;55.688;37.600;2023-04-24T01:59:34;99469.28;;;12.74;34.59
70200;BME280;57587;55.688;37.600;2023-04-24T02:02:03;99465.97;;;12.72;34.46
70200;BME280;57587;55.688;37.600;2023-04-24T02:04:30;99470.53;;;12.72;34.29
70200;BME280;57587;55.688;37.600;2023-04-24T02:06:57;99467.41;;;12.68;34.40
70200;BME280;57587;55.688;37.600;2023-04-24T02:09:24;99471.53;;;12.64;34.67
70200;BME280;57587;55.688;37.600;2023-04-24T02:11:52;99474.63;;;12.61;34.64
70200;BME280;57587;55.688;37.600;2023-04-24T02:14:19;99468.59;;;12.59;34.76
70200;BME280;57587;55.688;37.600;2023-04-24T02:16:46;99473.34;;;12.57;35.26
70200;BME280;57587;55.688;37.600;2023-04-24T02:19:14;99474.16;;;12.57;35.06
70200;BME280;57587;55.688;37.600;2023-04-24T02:21:42;99469.44;;;12.59;35.28
70200;BME280;57587;55.688;37.600;2023-04-24T02:24:09;99470.06;;;12.61;34.84
70200;BME280;57587;55.688;37.600;2023-04-24T02:26:36;99474.00;;;12.65;35.05
70200;BME280;57587;55.688;37.600;2023-04-24T02:29:04;99474.44;;;12.69;34.62
70200;BME280;57587;55.688;37.600;2023-04-24T02:31:31;99471.34;;;12.72;34.76
70200;BME280;57587;55.688;37.600;2023-04-24T02:33:58;99480.47;;;12.78;35.47
70200;BME280;57587;55.688;37.600;2023-04-24T02:36:25;99475.09;;;12.78;34.97
70200;BME280;57587;55.688;37.600;2023-04-24T02:38:52;99476.13;;;12.77;34.84
70200;BME280;57587;55.688;37.600;2023-04-24T02:41:19;99481.28;;;12.78;35.27
70200;BME280;57587;55.688;37.600;2023-04-24T02:43:47;99480.28;;;12.79;34.86
70200;BME280;57587;55.688;37.600;2023-04-24T02:46:14;99483.38;;;12.83;34.78
70200;BME280;57587;55.688;37.600;2023-04-24T02:48:41;99488.94;;;12.81;35.10
70200;BME280;57587;55.688;37.600;2023-04-24T02:51:08;99492.25;;;12.83;34.75
70200;BME280;57587;55.688;37.600;2023-04-24T02:53:36;99491.03;;;12.86;34.75
70200;BME280;57587;55.688;37.600;2023-04-24T02:56:03;99485.44;;;12.87;34.51
70200;BME280;57587;55.688;37.600;2023-04-24T02:58:30;99492.69;;;12.93;34.29
70200;BME280;57587;55.688;37.600;2023-04-24T03:00:57;99500.78;;;13.00;34.85
70200;BME280;57587;55.688;37.600;2023-04-24T03:03:25;99499.56;;;13.03;34.26
70200;BME280;57587;55.688;37.600;2023-04-24T03:05:52;99496.69;;;13.11;34.04
70200;BME280;57587;55.688;37.600;2023-04-24T03:08:19;99494.00;;;13.11;34.11
70200;BME280;57587;55.688;37.600;2023-04-24T03:10:47;99500.91;;;13.27;34.07
70200;BME280;57587;55.688;37.600;2023-04-24T03:13:15;99493.69;;;13.41;33.89
70200;BME280;57587;55.688;37.600;2023-04-24T03:15:43;99501.78;;;13.54;33.54
70200;BME280;57587;55.688;37.600;2023-04-24T03:18:11;99499.31;;;13.72;33.43
70200;BME280;57587;55.688;37.600;2023-04-24T03:20:39;99500.78;;;13.95;33.50
70200;BME280;57587;55.688;37.600;2023-04-24T03:23:06;99500.13;;;14.19;32.55
70200;BME280;57587;55.688;37.600;2023-04-24T03:25:35;99514.56;;;14.45;32.36
70200;BME280;57587;55.688;37.600;2023-04-24T03:28:02;99504.56;;;14.79;32.03
70200;BME280;57587;55.688;37.600;2023-04-24T03:30:43;99503.69;;;15.30;30.99
70200;BME280;57587;55.688;37.600;2023-04-24T03:33:12;99503.03;;;15.73;29.96
70200;BME280;57587;55.688;37.600;2023-04-24T03:35:46;99498.72;;;16.40;29.15
70200;BME280;57587;55.688;37.600;2023-04-24T03:38:13;99506.09;;;17.07;28.04
70200;BME280;57587;55.688;37.600;2023-04-24T03:40:54;99504.25;;;17.79;26.83
70200;BME280;57587;55.688;37.600;2023-04-24T03:43:34;99510.25;;;18.63;25.75
70200;BME280;57587;55.688;37.600;2023-04-24T03:46:02;99510.56;;;19.31;24.70
70200;BME280;57587;55.688;37.600;2023-04-24T03:48:32;99505.44;;;19.92;23.88
70200;BME280;57587;55.688;37.600;2023-04-24T03:51:01;99502.03;;;20.52;23.58
70200;BME280;57587;55.688;37.600;2023-04-24T03:53:29;99509.38;;;21.17;22.50
70200;BME280;57587;55.688;37.600;2023-04-24T03:55:58;99511.34;;;21.76;21.72
70200;BME280;57587;55.688;37.600;2023-04-24T03:58:26;99510.69;;;22.28;21.17
70200;BME280;57587;55.688;37.600;2023-04-24T04:00:54;99511.91;;;22.95;20.24
70200;BME280;57587;55.688;37.600;2023-04-24T04:03:45;99519.72;;;23.50;19.91
70200;BME280;57587;55.688;37.600;2023-04-24T04:06:15;99527.16;;;24.05;19.03
70200;BME280;57587;55.688;37.600;2023-04-24T04:08:43;99517.56;;;24.49;19.13
70200;BME280;57587;55.688;37.600;2023-04-24T04:11:10;99522.84;;;25.10;18.43
70200;BME280;57587;55.688;37.600;2023-04-24T04:13:37;99526.97;;;25.62;17.44
70200;BME280;57587;55.688;37.600;2023-04-24T04:16:04;99519.56;;;26.02;17.44
70200;BME280;57587;55.688;37.600;2023-04-24T04:18:32;99516.38;;;26.53;17.01
70200;BME280;57587;55.688;37.600;2023-04-24T04:21:00;99521.56;;;27.03;16.74
70200;BME280;57587;55.688;37.600;2023-04-24T04:23:28;99529.59;;;27.42;16.25
70200;BME280;57587;55.688;37.600;2023-04-24T04:26:07;99527.28;;;27.87;16.14
70200;BME280;57587;55.688;37.600;2023-04-24T04:28:48;99526.69;;;28.23;15.41
70200;BME280;57587;55.688;37.600;2023-04-24T04:31:15;99529.63;;;28.59;15.47
70200;BME280;57587;55.688;37.600;2023-04-24T04:33:43;99525.78;;;29.02;14.83
70200;BME280;57587;55.688;37.600;2023-04-24T04:36:11;99530.44;;;29.29;14.85
70200;BME280;57587;55.688;37.600;2023-04-24T04:38:43;99521.03;;;29.80;14.26
70200;BME280;57587;55.688;37.600;2023-04-24T04:41:22;99536.06;;;30.19;13.92
70200;BME280;57587;55.688;37.600;2023-04-24T04:43:49;99535.84;;;30.60;13.94
70200;BME280;57587;55.688;37.600;2023-04-24T04:46:17;99538.78;;;31.04;13.16
70200;BME280;57587;55.688;37.600;2023-04-24T04:49:03;99528.00;;;31.42;13.34
70200;BME280;57587;55.688;37.600;2023-04-24T04:51:30;99535.00;;;31.57;12.35
70200;BME280;57587;55.688;37.600;2023-04-24T04:53:57;99548.81;;;31.83;12.21
70200;BME280;57587;55.688;37.600;2023-04-24T04:56:25;99543.63;;;31.73;12.38
70200;BME280;57587;55.688;37.600;2023-04-24T04:58:52;99543.78;;;31.85;12.56
70200;BME280;57587;55.688;37.600;2023-04-24T05:01:20;99549.47;;;31.80;12.34
70200;BME280;57587;55.688;37.600;2023-04-24T05:03:49;99545.75;;;31.84;12.07
70200;BME280;57587;55.688;37.600;2023-04-24T05:06:16;99547.69;;;32.19;12.02
70200;BME280;57587;55.688;37.600;2023-04-24T05:08:45;99538.00;;;32.42;11.63
70200;BME280;57587;55.688;37.600;2023-04-24T05:11:27;99538.66;;;32.56;11.39
70200;BME280;57587;55.688;37.600;2023-04-24T05:13:56;99541.38;;;32.65;11.33
70200;BME280;57587;55.688;37.600;2023-04-24T05:16:31;99538.00;;;32.98;11.35
70200;BME280;57587;55.688;37.600;2023-04-24T05:18:59;99539.41;;;32.74;11.10
70200;BME280;57587;55.688;37.600;2023-04-24T05:21:32;99537.25;;;33.39;11.43
70200;BME280;57587;55.688;37.600;2023-04-24T05:23:59;99535.91;;;33.66;10.90
70200;BME280;57587;55.688;37.600;2023-04-24T05:26:42;99542.94;;;34.06;10.84
70200;BME280;57587;55.688;37.600;2023-04-24T05:29:10;99539.34;;;34.38;10.83
70200;BME280;57587;55.688;37.600;2023-04-24T05:31:38;99542.34;;;34.79;10.18
70200;BME280;57587;55.688;37.600;2023-04-24T05:34:05;99543.16;;;35.04;10.14
70200;BME280;57587;55.688;37.600;2023-04-24T05:36:33;99542.66;;;35.39;10.01
70200;BME280;57587;55.688;37.600;2023-04-24T05:39:00;99543.53;;;35.67;9.35
70200;BME280;57587;55.688;37.600;2023-04-24T05:41:27;99534.03;;;35.68;9.50
70200;BME280;57587;55.688;37.600;2023-04-24T05:43:54;99530.28;;;35.76;9.96
70200;BME280;57587;55.688;37.600;2023-04-24T05:46:21;99534.91;;;35.85;9.11
70200;BME280;57587;55.688;37.600;2023-04-24T05:48:49;99534.53;;;36.14;9.62
70200;BME280;57587;55.688;37.600;2023-04-24T05:51:17;99538.19;;;36.46;9.14
70200;BME280;57587;55.688;37.600;2023-04-24T05:53:44;99533.59;;;36.38;9.14
70200;BME280;57587;55.688;37.600;2023-04-24T05:56:12;99535.63;;;36.54;9.10
70200;BME280;57587;55.688;37.600;2023-04-24T05:58:40;99531.94;;;36.81;8.68
70200;BME280;57587;55.688;37.600;2023-04-24T06:01:08;99542.00;;;36.54;9.04
70200;BME280;57587;55.688;37.600;2023-04-24T06:03:38;99527.94;;;36.35;9.15
70200;BME280;57587;55.688;37.600;2023-04-24T06:06:07;99539.75;;;36.76;9.19
70200;BME280;57587;55.688;37.600;2023-04-24T06:08:35;99530.97;;;37.25;8.51
70200;BME280;57587;55.688;37.600;2023-04-24T06:11:02;99536.56;;;37.60;8.67
70200;BME280;57587;55.688;37.600;2023-04-24T06:13:31;99536.78;;;37.71;8.10
70200;BME280;57587;55.688;37.600;2023-04-24T06:16:19;99537.16;;;36.23;8.73
70200;BME280;57587;55.688;37.600;2023-04-24T06:18:53;99526.31;;;36.97;9.17
70200;BME280;57587;55.688;37.600;2023-04-24T06:21:20;99542.50;;;37.58;7.91
70200;BME280;57587;55.688;37.600;2023-04-24T06:23:48;99542.78;;;37.53;7.78
70200;BME280;57587;55.688;37.600;2023-04-24T06:26:16;99539.81;;;37.27;8.13
70200;BME280;57587;55.688;37.600;2023-04-24T06:28:43;99536.47;;;37.56;8.31
70200;BME280;57587;55.688;37.600;2023-04-24T06:31:10;99534.41;;;37.53;7.79
70200;BME280;57587;55.688;37.600;2023-04-24T06:33:38;99540.03;;;37.73;7.65
70200;BME280;57587;55.688;37.600;2023-04-24T06:36:05;99531.28;;;38.13;8.13
70200;BME280;57587;55.688;37.600;2023-04-24T06:38:32;99543.63;;;38.55;7.37
70200;BME280;57587;55.688;37.600;2023-04-24T06:41:00;99538.00;;;39.01;7.77
70200;BME280;57587;55.688;37.600;2023-04-24T06:43:27;99546.94;;;39.10;7.45
70200;BME280;57587;55.688;37.600;2023-04-24T06:45:54;99536.66;;;38.91;6.88
70200;BME280;57587;55.688;37.600;2023-04-24T06:48:22;99535.13;;;38.47;7.16
70200;BME280;57587;55.688;37.600;2023-04-24T06:50:49;99541.75;;;38.39;7.44
70200;BME280;57587;55.688;37.600;2023-04-24T06:53:16;99539.56;;;37.51;7.41
70200;BME280;57587;55.688;37.600;2023-04-24T06:55:43;99545.72;;;37.25;7.16
70200;BME280;57587;55.688;37.600;2023-04-24T06:58:12;99544.84;;;37.21;7.41
70200;BME280;57587;55.688;37.600;2023-04-24T07:00:40;99553.22;;;37.56;7.80
70200;BME280;57587;55.688;37.600;2023-04-24T07:03:07;99550.75;;;37.71;6.96
70200;BME280;57587;55.688;37.600;2023-04-24T07:05:34;99549.47;;;38.03;7.62
70200;BME280;57587;55.688;37.600;2023-04-24T07:08:02;99546.81;;;38.53;7.55
70200;BME280;57587;55.688;37.600;2023-04-24T07:10:30;99549.78;;;38.64;6.94
70200;BME280;57587;55.688;37.600;2023-04-24T07:12:57;99546.44;;;38.35;7.19
70200;BME280;57587;55.688;37.600;2023-04-24T07:15:24;99553.19;;;38.77;7.09
70200;BME280;57587;55.688;37.600;2023-04-24T07:17:51;99555.16;;;38.99;7.19
70200;BME280;57587;55.688;37.600;2023-04-24T07:20:18;99547.69;;;39.07;6.95
70200;BME280;57587;55.688;37.600;2023-04-24T07:22:45;99548.34;;;39.50;6.78
70200;BME280;57587;55.688;37.600;2023-04-24T07:25:12;99549.94;;;39.51;6.11
70200;BME280;57587;55.688;37.600;2023-04-24T07:27:39;99547.25;;;39.88;6.58
70200;BME280;57587;55.688;37.600;2023-04-24T07:30:07;99547.59;;;39.00;6.60
70200;BME280;57587;55.688;37.600;2023-04-24T07:32:34;99553.50;;;38.94;6.62
70200;BME280;57587;55.688;37.600;2023-04-24T07:35:02;99554.00;;;37.92;7.34
70200;BME280;57587;55.688;37.600;2023-04-24T07:37:29;99545.94;;;37.91;7.11
70200;BME280;57587;55.688;37.600;2023-04-24T07:39:57;99557.53;;;38.74;6.78
70200;BME280;57587;55.688;37.600;2023-04-24T07:42:24;99536.63;;;37.83;7.05
70200;BME280;57587;55.688;37.600;2023-04-24T07:44:51;99548.28;;;38.27;7.09
70200;BME280;57587;55.688;37.600;2023-04-24T07:47:18;99550.78;;;38.75;6.64
70200;BME280;57587;55.688;37.600;2023-04-24T07:49:45;99546.69;;;37.49;7.00
70200;BME280;57587;55.688;37.600;2023-04-24T07:52:12;99532.91;;;35.57;8.25
70200;BME280;57587;55.688;37.600;2023-04-24T07:54:39;99534.00;;;35.81;8.29
70200;BME280;57587;55.688;37.600;2023-04-24T07:57:07;99547.31;;;36.15;8.49
70200;BME280;57587;55.688;37.600;2023-04-24T07:59:35;99543.97;;;36.85;8.44
70200;BME280;57587;55.688;37.600;2023-04-24T08:02:02;99550.09;;;37.58;7.54
70200;BME280;57587;55.688;37.600;2023-04-24T08:04:29;99539.53;;;36.37;7.74
70200;BME280;57587;55.688;37.600;2023-04-24T08:06:57;99548.22;;;36.19;8.04
70200;BME280;57587;55.688;37.600;2023-04-24T08:09:24;99543.84;;;36.98;7.75
70200;BME280;57587;55.688;37.600;2023-04-24T08:12:07;99538.88;;;37.93;7.56
70200;BME280;57587;55.688;37.600;2023-04-24T08:14:34;99539.72;;;38.59;7.10
70200;BME280;57587;55.688;37.600;2023-04-24T08:17:01;99526.59;;;37.24;7.59
70200;BME280;57587;55.688;37.600;2023-04-24T08:19:30;99538.19;;;36.94;7.56
70200;BME280;57587;55.688;37.600;2023-04-24T08:21:57;99535.25;;;37.03;7.35
70200;BME280;57587;55.688;37.600;2023-04-24T08:24:24;99534.63;;;37.09;7.99
70200;BME280;57587;55.688;37.600;2023-04-24T08:26:52;99526.34;;;37.87;7.03
70200;BME280;57587;55.688;37.600;2023-04-24T08:29:20;99539.59;;;38.75;6.78
70200;BME280;57587;55.688;37.600;2023-04-24T08:31:47;99531.63;;;39.00;6.88
70200;BME280;57587;55.688;37.600;2023-04-24T08:34:15;99516.97;;;39.10;6.30
70200;BME280;57587;55.688;37.600;2023-04-24T08:36:42;99518.88;;;39.03;6.84
70200;BME280;57587;55.688;37.600;2023-04-24T08:39:13;99524.69;;;38.90;6.40
70200;BME280;57587;55.688;37.600;2023-04-24T08:41:42;99502.84;;;38.08;6.96
70200;BME280;57587;55.688;37.600;2023-04-24T08:44:12;99504.53;;;38.35;6.80
70200;BME280;57587;55.688;37.600;2023-04-24T08:46:47;99501.22;;;37.13;7.16
70200;BME280;57587;55.688;37.600;2023-04-24T08:49:15;99509.13;;;35.88;8.32
70200;BME280;57587;55.688;37.600;2023-04-24T08:51:46;99508.72;;;36.45;8.51
70200;BME280;57587;55.688;37.600;2023-04-24T08:54:14;99505.41;;;36.56;8.22
70200;BME280;57587;55.688;37.600;2023-04-24T08:56:43;99495.56;;;35.58;8.28
70200;BME280;57587;55.688;37.600;2023-04-24T08:59:11;99497.25;;;35.75;8.09
70200;BME280;57587;55.688;37.600;2023-04-24T09:01:40;99493.97;;;35.45;8.30
70200;BME280;57587;55.688;37.600;2023-04-24T09:04:09;99494.25;;;35.15;8.67
70200;BME280;57587;55.688;37.600;2023-04-24T09:06:38;99493.84;;;35.82;8.93
70200;BME280;57587;55.688;37.600;2023-04-24T09:09:06;99494.19;;;35.40;8.96
70200;BME280;57587;55.688;37.600;2023-04-24T09:11:34;99497.56;;;34.23;9.41
70200;BME280;57587;55.688;37.600;2023-04-24T09:14:01;99489.38;;;34.51;9.46
70200;BME280;57587;55.688;37.600;2023-04-24T09:16:28;99488.63;;;34.17;8.97
70200;BME280;57587;55.688;37.600;2023-04-24T09:18:56;99474.78;;;33.63;9.24
70200;BME280;57587;55.688;37.600;2023-04-24T09:21:23;99473.47;;;32.89;9.42
70200;BME280;57587;55.688;37.600;2023-04-24T09:24:02;99477.09;;;32.51;11.10
70200;BME280;57587;55.688;37.600;2023-04-24T09:26:31;99478.53;;;31.84;10.78
70200;BME280;57587;55.688;37.600;2023-04-24T09:28:59;99476.56;;;31.32;10.90
70200;BME280;57587;55.688;37.600;2023-04-24T09:31:28;99471.34;;;31.31;11.35
70200;BME280;57587;55.688;37.600;2023-04-24T09:34:04;99468.53;;;30.87;11.51
70200;BME280;57587;55.688;37.600;2023-04-24T09:36:39;99476.56;;;29.36;11.91
70200;BME280;57587;55.688;37.600;2023-04-24T09:39:11;99467.72;;;27.96;12.75
70200;BME280;57587;55.688;37.600;2023-04-24T09:44:15;99463.75;;;28.77;12.93
70200;BME280;57587;55.688;37.600;2023-04-24T09:46:44;99461.63;;;28.73;12.82
70200;BME280;57587;55.688;37.600;2023-04-24T09:49:13;99452.53;;;28.32;13.45
70200;BME280;57587;55.688;37.600;2023-04-24T09:51:44;99451.84;;;27.93;13.35
70200;BME280;57587;55.688;37.600;2023-04-24T09:54:16;99465.09;;;27.91;13.44
70200;BME280;57587;55.688;37.600;2023-04-24T09:56:46;99450.41;;;27.96;13.98
70200;BME280;57587;55.688;37.600;2023-04-24T09:59:15;99449.28;;;27.07;13.83
70200;BME280;57587;55.688;37.600;2023-04-24T10:01:42;99442.91;;;26.69;14.06
70200;BME280;57587;55.688;37.600;2023-04-24T10:04:18;99440.81;;;26.37;14.49
70200;BME280;57587;55.688;37.600;2023-04-24T10:06:47;99430.69;;;26.08;14.70
70200;BME280;57587;55.688;37.600;2023-04-24T10:09:20;99429.16;;;25.97;15.05
70200;BME280;57587;55.688;37.600;2023-04-24T10:11:49;99440.16;;;25.58;15.53
70200;BME280;57587;55.688;37.600;2023-04-24T10:14:18;99441.41;;;25.70;14.88
70200;BME280;57587;55.688;37.600;2023-04-24T10:16:48;99436.94;;;25.85;15.37
70200;BME280;57587;55.688;37.600;2023-04-24T10:19:17;99443.09;;;25.66;15.12
70200;BME280;57587;55.688;37.600;2023-04-24T10:21:47;99433.25;;;25.65;15.43
70200;BME280;57587;55.688;37.600;2023-04-24T10:24:18;99432.19;;;25.61;14.77
70200;BME280;57587;55.688;37.600;2023-04-24T10:26:48;99433.09;;;25.02;15.19
70200;BME280;57587;55.688;37.600;2023-04-24T10:29:17;99428.56;;;24.82;15.69
70200;BME280;57587;55.688;37.600;2023-04-24T10:31:44;99430.44;;;24.87;16.99
70200;BME280;57587;55.688;37.600;2023-04-24T10:34:15;99422.84;;;24.73;15.90
70200;BME280;57587;55.688;37.600;2023-04-24T10:36:46;99426.09;;;24.80;15.88
70200;BME280;57587;55.688;37.600;2023-04-24T10:39:15;99423.81;;;24.98;16.66
70200;BME280;57587;55.688;37.600;2023-04-24T10:41:43;99425.72;;;25.02;15.43
70200;BME280;57587;55.688;37.600;2023-04-24T10:44:15;99421.16;;;24.88;16.56
70200;BME280;57587;55.688;37.600;2023-04-24T10:46:46;99419.97;;;24.99;16.60
70200;BME280;57587;55.688;37.600;2023-04-24T10:49:28;99416.34;;;25.19;16.09
70200;BME280;57587;55.688;37.600;2023-04-24T10:52:00;99411.94;;;25.18;16.45
70200;BME280;57587;55.688;37.600;2023-04-24T10:54:46;99409.56;;;25.06;16.72
70200;BME280;57587;55.688;37.600;2023-04-24T10:59:52;99407.06;;;24.60;16.31
70200;BME280;57587;55.688;37.600;2023-04-24T11:02:38;99409.00;;;24.54;16.25
70200;BME280;57587;55.688;37.600;2023-04-24T11:05:06;99409.84;;;24.45;16.24
70200;BME280;57587;55.688;37.600;2023-04-24T11:10:38;99399.53;;;24.06;16.08
70200;BME280;57587;55.688;37.600;2023-04-24T11:13:06;99396.25;;;24.09;16.74
70200;BME280;57587;55.688;37.600;2023-04-24T11:15:33;99401.75;;;23.99;16.37
70200;BME280;57587;55.688;37.600;2023-04-24T11:18:00;99392.47;;;23.89;16.50
70200;BME280;57587;55.688;37.600;2023-04-24T11:20:28;99392.50;;;23.79;16.66
70200;BME280;57587;55.688;37.600;2023-04-24T11:22:55;99390.84;;;23.53;16.49
70200;BME280;57587;55.688;37.600;2023-04-24T11:25:24;99390.81;;;23.22;16.87
70200;BME280;57587;55.688;37.600;2023-04-24T11:28:03;99388.06;;;22.96;16.99
70200;BME280;57587;55.688;37.600;2023-04-24T11:30:31;99383.09;;;22.93;17.03
70200;BME280;57587;55.688;37.600;2023-04-24T11:33:04;99383.09;;;22.88;16.81
70200;BME280;57587;55.688;37.600;2023-04-24T11:35:39;99383.34;;;22.82;16.95
70200;BME280;57587;55.688;37.600;2023-04-24T11:38:06;99384.16;;;22.77;17.14
70200;BME280;57587;55.688;37.600;2023-04-24T11:40:51;99374.34;;;22.81;17.20
70200;BME280;57587;55.688;37.600;2023-04-24T11:43:18;99368.34;;;22.79;17.12
70200;BME280;57587;55.688;37.600;2023-04-24T11:45:49;99368.06;;;22.75;17.29
70200;BME280;57587;55.688;37.600;2023-04-24T11:48:20;99365.34;;;22.75;17.38
70200;BME280;57587;55.688;37.600;2023-04-24T11:50:49;99357.47;;;22.89;17.61
70200;BME280;57587;55.688;37.600;2023-04-24T11:53:19;99351.78;;;23.06;17.87
70200;BME280;57587;55.688;37.600;2023-04-24T11:55:47;99345.50;;;22.95;16.89
70200;BME280;57587;55.688;37.600;2023-04-24T11:58:14;99351.41;;;22.62;16.97
70200;BME280;57587;55.688;37.600;2023-04-24T12:00:41;99364.13;;;22.41;17.24
70200;BME280;57587;55.688;37.600;2023-04-24T12:03:10;99347.41;;;22.17;17.45
70200;BME280;57587;55.688;37.600;2023-04-24T12:05:39;99350.41;;;22.20;17.66
70200;BME280;57587;55.688;37.600;2023-04-24T12:08:07;99340.91;;;22.28;17.94
70200;BME280;57587;55.688;37.600;2023-04-24T12:10:34;99342.00;;;22.32;17.82
70200;BME280;57587;55.688;37.600;2023-04-24T12:13:02;99336.56;;;22.32;17.69
70200;BME280;57587;55.688;37.600;2023-04-24T12:15:29;99338.22;;;22.33;17.67
70200;BME280;57587;55.688;37.600;2023-04-24T12:17:57;99339.53;;;22.25;17.32
70200;BME280;57587;55.688;37.600;2023-04-24T12:20:27;99333.00;;;22.26;17.56
70200;BME280;57587;55.688;37.600;2023-04-24T12:22:56;99337.53;;;22.10;17.79
70200;BME280;57587;55.688;37.600;2023-04-24T12:25:26;99333.34;;;21.87;18.03
70200;BME280;57587;55.688;37.600;2023-04-24T12:30:38;99337.72;;;21.94;17.67
70200;BME280;57587;55.688;37.600;2023-04-24T12:33:06;99335.16;;;21.77;17.44
70200;BME280;57587;55.688;37.600;2023-04-24T12:35:33;99326.47;;;21.75;17.78
70200;BME280;57587;55.688;37.600;2023-04-24T12:38:06;99323.53;;;21.86;17.87
70200;BME280;57587;55.688;37.600;2023-04-24T12:40:34;99327.59;;;21.89;17.31
70200;BME280;57587;55.688;37.600;2023-04-24T12:43:12;99324.63;;;21.91;17.50
70200;BME280;57587;55.688;37.600;2023-04-24T12:45:39;99327.53;;;21.74;17.37
70200;BME280;57587;55.688;37.600;2023-04-24T12:48:07;99323.16;;;21.73;17.22
70200;BME280;57587;55.688;37.600;2023-04-24T12:50:34;99322.06;;;21.74;17.21
70200;BME280;57587;55.688;37.600;2023-04-24T12:53:01;99313.38;;;21.77;17.38
70200;BME280;57587;55.688;37.600;2023-04-24T12:55:28;99317.25;;;21.86;18.06
70200;BME280;57587;55.688;37.600;2023-04-24T12:57:55;99314.00;;;21.89;17.95
70200;BME280;57587;55.688;37.600;2023-04-24T13:00:22;99309.91;;;21.86;18.32
70200;BME280;57587;55.688;37.600;2023-04-24T13:02:49;99315.13;;;21.98;18.26
70200;BME280;57587;55.688;37.600;2023-04-24T13:05:17;99302.81;;;21.80;18.11
70200;BME280;57587;55.688;37.600;2023-04-24T13:07:44;99303.53;;;21.71;18.33
70200;BME280;57587;55.688;37.600;2023-04-24T13:10:11;99300.81;;;21.66;18.10
70200;BME280;57587;55.688;37.600;2023-04-24T13:12:40;99301.34;;;21.62;18.39